Terminal Aerodrome Forecast
Issued by NWS Jackson, MS

Home | Current Version | Previous Version | Text Only | Print | Product List | Glossary On
Versions: 1 2 3 4 5 6 7 8 9 10 11 12 13 14
000
FTUS44 KJAN 260520
TAFMEI
TAF
KMEI 260520Z 2606/2706 16006KT P6SM -RA SCT008 BKN120
     FM260700 15004KT 6SM -SHRA BR OVC007
     FM261400 18009KT P6SM VCSH OVC015
     FM261600 18006KT 4SM -TSRA OVC015CB=

USA.gov is the U.S. government's official web portal to all federal, state and local government web resources and services.